Paisley, Canada
Current Conditions -  °F | °C
As of 8:00 PM on Saturday 25 Oct 2014 (Local Time) from CYVV Reporting Station
Broken Clouds Broken Clouds  
Wind Chill: 52°   Ceiling: 7000
Heat Index: 52°   Visibility: 15mi
Dew Point: 39°   Wind: 8mph
Humidity: 62%   Direction: 300°WNW
Pressure: 29.65"   Gusts: NA
Location:  44.3°N, 81.28°W
Report Text: CYVV 260000Z 30007KT 15SM FEW020 BKN070 11/04 A2965 RMK SC1AC5SLP045
Loading
Personal Weather Stations






























Interactive Weather Map
Tropical Storm Tracking
New forecast layout! Learn more

10-Day Weather Forecast

Advertisements
Track Severe Weather on mobile